Time;durP1;ratioP1;P1;durP2;ratioP2;P2;SDS_P1;SDS_P2;PMS_P1;PMS_P2;Temp;Humidity;BMP_temperature;BMP_pressure;BME280_temperature;BME280_humidity;BME280_pressure;Samples;Min_cycle;Max_cycle;Signal;HPM_P1;HPM_P2
2022/03/29 00:00:00;;;;;;;2.50;2.00;;;20.40;56.80;;;;;;4997585;28;20097;-14
2022/03/29 00:02:26;;;;;;;2.35;1.88;;;20.30;57.00;;;;;;4997572;28;20042;-12
2022/03/29 00:04:51;;;;;;;2.05;1.95;;;20.30;57.00;;;;;;4992239;28;20046;-13
2022/03/29 00:07:17;;;;;;;1.95;1.80;;;20.30;57.00;;;;;;4997471;28;20041;-14
2022/03/29 00:09:43;;;;;;;1.60;1.50;;;20.30;56.90;;;;;;4997797;28;20509;-15
2022/03/29 00:12:09;;;;;;;2.05;1.95;;;20.30;56.90;;;;;;4983588;28;20412;-14
2022/03/29 00:14:34;;;;;;;2.20;2.00;;;20.30;56.90;;;;;;4996447;28;20485;-13
2022/03/29 00:17:00;;;;;;;1.75;1.65;;;20.30;56.80;;;;;;4996476;28;20046;-14
2022/03/29 00:19:26;;;;;;;2.05;1.90;;;20.30;56.90;;;;;;4996666;28;20050;-14
2022/03/29 00:21:51;;;;;;;2.00;1.90;;;20.30;56.90;;;;;;5002882;28;20507;-14
2022/03/29 00:24:17;;;;;;;2.15;2.05;;;20.30;56.90;;;;;;4997714;28;20057;-14
2022/03/29 00:26:42;;;;;;;1.70;1.60;;;20.30;56.90;;;;;;4992016;28;20042;-14
2022/03/29 00:29:08;;;;;;;2.05;1.60;;;20.30;56.90;;;;;;4983362;28;20447;-14
2022/03/29 00:31:34;;;;;;;1.90;1.80;;;20.30;56.80;;;;;;4987159;28;20042;-14
2022/03/29 00:33:59;;;;;;;1.80;1.70;;;20.30;56.90;;;;;;4979906;28;20046;-14
2022/03/29 00:36:26;;;;;;;1.90;1.80;;;20.30;56.90;;;;;;4997027;28;20088;-14
2022/03/29 00:38:54;;;;;;;1.80;1.70;;;20.30;56.90;;;;;;4988077;28;20057;-15
2022/03/29 00:41:20;;;;;;;1.70;1.60;;;20.30;57.00;;;;;;4988861;28;20120;-14
2022/03/29 00:43:45;;;;;;;2.10;1.50;;;20.30;57.00;;;;;;4995075;28;20089;-14
2022/03/29 00:46:11;;;;;;;2.08;1.88;;;20.30;56.90;;;;;;4988656;28;20085;-14
2022/03/29 00:48:38;;;;;;;1.70;1.60;;;20.30;57.00;;;;;;4977802;28;20046;-14
2022/03/29 00:51:04;;;;;;;2.00;1.80;;;20.30;57.00;;;;;;4993881;28;20042;-14
2022/03/29 00:53:29;;;;;;;2.22;2.00;;;20.20;57.00;;;;;;4993790;28;20061;-14
2022/03/29 00:55:55;;;;;;;2.05;1.85;;;20.20;57.00;;;;;;4995010;28;20098;-15
2022/03/29 00:58:21;;;;;;;2.40;2.20;;;20.20;57.00;;;;;;4996410;28;20054;-14
2022/03/29 01:00:47;;;;;;;2.10;1.95;;;20.20;57.00;;;;;;4996938;28;20046;-13
2022/03/29 01:03:12;;;;;;;1.65;1.55;;;20.20;57.00;;;;;;4991192;28;20570;-14
2022/03/29 01:05:38;;;;;;;1.38;1.27;;;20.20;57.00;;;;;;4993092;28;20581;-15
2022/03/29 01:08:04;;;;;;;2.10;1.85;;;20.20;57.00;;;;;;4995544;28;20151;-13
2022/03/29 01:10:30;;;;;;;2.20;2.00;;;20.20;57.00;;;;;;4995524;28;20043;-14
2022/03/29 01:12:56;;;;;;;2.13;2.03;;;20.20;57.10;;;;;;4985321;28;20077;-14
2022/03/29 01:15:23;;;;;;;2.17;1.98;;;20.20;57.10;;;;;;4996718;28;20035;-14
2022/03/29 01:17:49;;;;;;;2.03;1.60;;;20.20;57.00;;;;;;4995931;28;20176;-14
2022/03/29 01:20:22;;;;;;;1.75;1.60;;;20.20;57.10;;;;;;4995604;28;20085;-14
2022/03/29 01:22:48;;;;;;;2.03;1.85;;;20.20;57.10;;;;;;4996444;28;20042;-14
2022/03/29 01:25:18;;;;;;;2.08;1.73;;;20.20;57.20;;;;;;4994570;28;20064;-15
2022/03/29 01:27:45;;;;;;;2.15;1.60;;;20.20;57.10;;;;;;4976914;28;20045;-14
2022/03/29 01:30:11;;;;;;;3.30;1.85;;;20.20;57.10;;;;;;4991219;28;20495;-14
2022/03/29 01:32:39;;;;;;;2.70;2.00;;;20.20;57.20;;;;;;4983320;28;20047;-14
2022/03/29 01:35:05;;;;;;;2.17;1.95;;;20.20;57.20;;;;;;4994776;28;20042;-13
2022/03/29 01:37:31;;;;;;;2.33;2.22;;;20.20;57.20;;;;;;4990961;28;20054;-14
2022/03/29 01:39:57;;;;;;;2.28;1.80;;;20.20;57.20;;;;;;4987871;28;20073;-15
2022/03/29 01:42:22;;;;;;;1.90;1.80;;;20.20;57.20;;;;;;4996050;28;20046;-13
2022/03/29 01:44:48;;;;;;;1.65;1.55;;;20.20;57.20;;;;;;4978664;28;20427;-14
2022/03/29 01:47:18;;;;;;;2.85;1.98;;;20.20;57.20;;;;;;4976209;28;20121;-15
2022/03/29 01:49:44;;;;;;;2.17;1.98;;;20.20;57.30;;;;;;4978408;28;20058;-13
2022/03/29 01:52:09;;;;;;;2.20;2.00;;;20.20;57.20;;;;;;4975817;28;20043;-14
2022/03/29 01:54:35;;;;;;;1.80;1.70;;;20.20;57.20;;;;;;4990854;28;20354;-14
2022/03/29 01:57:00;;;;;;;2.65;1.50;;;20.20;57.30;;;;;;4994916;28;20042;-14
2022/03/29 01:59:26;;;;;;;1.70;1.60;;;20.20;57.20;;;;;;4995171;28;20117;-14
2022/03/29 02:01:52;;;;;;;2.00;1.70;;;20.20;57.30;;;;;;4996053;28;20051;-14
2022/03/29 02:04:17;;;;;;;2.05;1.88;;;20.20;57.30;;;;;;4994438;28;20046;-13
2022/03/29 02:06:43;;;;;;;2.08;1.70;;;20.20;57.20;;;;;;4976693;28;20138;-13
2022/03/29 02:09:10;;;;;;;2.00;1.90;;;20.20;57.30;;;;;;4994041;28;20046;-13
2022/03/29 02:11:36;;;;;;;2.00;1.90;;;20.20;57.30;;;;;;4995764;28;20116;-14
2022/03/29 02:14:02;;;;;;;3.22;2.10;;;20.10;57.30;;;;;;4982407;28;20075;-14
2022/03/29 02:16:28;;;;;;;1.73;1.63;;;20.20;57.40;;;;;;4996007;28;20054;-14
2022/03/29 02:18:53;;;;;;;2.75;1.80;;;20.10;57.40;;;;;;4995516;28;20121;-14
2022/03/29 02:21:19;;;;;;;1.80;1.70;;;20.20;57.40;;;;;;4976230;28;20062;-13
2022/03/29 02:23:44;;;;;;;2.33;2.13;;;20.20;57.40;;;;;;4994723;28;20129;-14
2022/03/29 02:26:10;;;;;;;1.90;1.70;;;20.20;57.40;;;;;;4994503;28;20130;-14
2022/03/29 02:28:36;;;;;;;1.70;1.60;;;20.10;57.30;;;;;;4995512;28;20050;-14
2022/03/29 02:31:01;;;;;;;2.15;2.05;;;20.10;57.40;;;;;;4995108;28;20042;-14
2022/03/29 02:33:27;;;;;;;2.28;1.70;;;20.10;57.40;;;;;;4995686;28;20038;-14
2022/03/29 02:35:53;;;;;;;2.05;1.95;;;20.10;57.40;;;;;;4981313;28;20050;-14
2022/03/29 02:38:20;;;;;;;1.95;1.85;;;20.10;57.40;;;;;;4975580;28;20051;-14
2022/03/29 02:40:46;;;;;;;1.70;1.60;;;20.10;57.40;;;;;;4989712;28;20050;-14
2022/03/29 02:43:11;;;;;;;1.60;1.50;;;20.10;57.40;;;;;;4995044;28;20493;-14
2022/03/29 02:45:37;;;;;;;1.83;1.73;;;20.10;57.40;;;;;;4995688;28;20173;-14
2022/03/29 02:48:03;;;;;;;1.80;1.50;;;20.10;57.40;;;;;;4978768;28;20098;-14
2022/03/29 02:50:28;;;;;;;1.98;1.20;;;20.10;57.40;;;;;;4992247;28;20139;-13
2022/03/29 02:52:55;;;;;;;1.75;1.65;;;20.10;57.40;;;;;;4995351;28;20035;-16
2022/03/29 02:55:26;;;;;;;1.55;1.48;;;20.10;57.40;;;;;;4989488;28;20050;-13
2022/03/29 02:57:53;;;;;;;1.92;1.80;;;20.10;57.40;;;;;;4987966;28;20113;-13
2022/03/29 03:00:18;;;;;;;1.70;1.60;;;20.10;57.50;;;;;;4994804;28;20137;-13
2022/03/29 03:02:50;;;;;;;2.55;1.60;;;20.10;57.50;;;;;;4994919;28;20130;-13
2022/03/29 03:05:16;;;;;;;1.60;1.50;;;20.10;57.40;;;;;;4989295;28;20072;-13
2022/03/29 03:07:43;;;;;;;1.77;1.67;;;20.10;57.40;;;;;;4986637;28;20126;-13
2022/03/29 03:10:09;;;;;;;1.90;1.80;;;20.10;57.50;;;;;;4978917;28;20047;-14
2022/03/29 03:12:45;;;;;;;2.00;1.80;;;20.10;57.50;;;;;;4990011;28;20049;-14
2022/03/29 03:15:12;;;;;;;1.77;1.67;;;20.10;57.40;;;;;;4997944;28;20034;-13
2022/03/29 03:17:37;;;;;;;2.08;1.40;;;20.10;57.50;;;;;;4986006;28;20051;-13
2022/03/29 03:20:04;;;;;;;1.80;1.70;;;20.10;57.40;;;;;;4987367;28;20053;-13
2022/03/29 03:22:30;;;;;;;1.63;1.52;;;20.10;57.40;;;;;;4998701;28;20046;-14
2022/03/29 03:24:55;;;;;;;1.85;1.50;;;20.10;58.00;;;;;;4993818;28;20038;-13
2022/03/29 03:27:22;;;;;;;1.30;1.20;;;20.10;57.40;;;;;;4978546;28;20121;-13
2022/03/29 03:29:48;;;;;;;1.70;1.60;;;20.10;57.50;;;;;;4990896;28;20042;-12
2022/03/29 03:32:14;;;;;;;1.88;1.77;;;20.00;57.40;;;;;;4998045;28;20042;-14
2022/03/29 03:34:39;;;;;;;1.50;1.40;;;20.10;57.40;;;;;;4993392;28;20057;-13
2022/03/29 03:37:05;;;;;;;2.20;2.00;;;20.10;57.40;;;;;;4978399;28;20408;-14
2022/03/29 03:39:35;;;;;;;1.77;1.67;;;20.00;57.30;;;;;;4996967;28;20137;-13
2022/03/29 03:42:08;;;;;;;1.88;1.70;;;20.00;57.30;;;;;;4998237;28;20046;-13
2022/03/29 03:44:34;;;;;;;1.42;1.33;;;20.00;57.30;;;;;;4991081;28;20185;-14
2022/03/29 03:47:02;;;;;;;1.58;1.48;;;20.00;57.40;;;;;;4978964;28;20083;-13
2022/03/29 03:49:28;;;;;;;1.70;1.60;;;20.00;57.30;;;;;;4983829;28;20389;-14
2022/03/29 03:51:54;;;;;;;2.00;1.80;;;20.10;57.40;;;;;;4997141;28;20419;-13
2022/03/29 03:54:20;;;;;;;2.10;1.90;;;20.00;57.30;;;;;;4997428;28;20039;-13
2022/03/29 03:56:46;;;;;;;1.70;1.60;;;20.00;57.30;;;;;;4997872;28;20495;-13
2022/03/29 03:59:11;;;;;;;1.70;1.60;;;20.00;57.40;;;;;;4988398;28;20400;-13
2022/03/29 04:01:37;;;;;;;3.03;1.95;;;20.00;57.50;;;;;;4978758;28;20527;-13
2022/03/29 04:04:03;;;;;;;2.10;2.00;;;20.00;57.30;;;;;;4982514;28;20507;-13
2022/03/29 04:06:28;;;;;;;1.70;1.60;;;20.00;57.40;;;;;;4980141;28;20058;-14
2022/03/29 04:08:54;;;;;;;1.63;1.52;;;20.00;57.40;;;;;;4978464;28;20653;-13
2022/03/29 04:11:20;;;;;;;1.77;1.67;;;20.00;57.50;;;;;;4992618;28;20047;-13
2022/03/29 04:13:45;;;;;;;2.45;1.77;;;20.00;57.50;;;;;;4978583;28;20046;-14
2022/03/29 04:16:11;;;;;;;1.58;1.48;;;20.00;57.50;;;;;;4977784;28;20567;-14
2022/03/29 04:18:37;;;;;;;2.45;1.67;;;20.00;57.50;;;;;;4992248;28;20046;-13
2022/03/29 04:21:04;;;;;;;1.50;1.40;;;20.10;57.40;;;;;;4986766;28;20062;-13
2022/03/29 04:23:30;;;;;;;1.85;1.75;;;20.00;57.50;;;;;;4977771;28;20047;-14
2022/03/29 04:25:57;;;;;;;1.83;1.73;;;20.00;57.50;;;;;;4977866;28;20058;-12
2022/03/29 04:28:23;;;;;;;1.80;1.70;;;20.00;57.50;;;;;;4988821;28;20125;-13
2022/03/29 04:30:48;;;;;;;1.80;1.70;;;20.00;57.50;;;;;;4997463;28;20069;-13
2022/03/29 04:33:14;;;;;;;1.83;1.70;;;20.00;57.70;;;;;;4992452;28;20043;-13
2022/03/29 04:35:40;;;;;;;1.60;1.50;;;20.00;57.50;;;;;;4994818;28;20046;-13
2022/03/29 04:38:05;;;;;;;2.78;2.60;;;20.00;57.50;;;;;;4996735;28;20244;-15
2022/03/29 04:40:31;;;;;;;2.15;2.05;;;20.00;57.60;;;;;;4997407;28;20065;-13
2022/03/29 04:43:00;;;;;;;2.03;1.92;;;20.00;57.50;;;;;;4979121;28;20051;-14
2022/03/29 04:45:25;;;;;;;2.25;2.05;;;20.00;57.50;;;;;;4977322;28;20047;-13
2022/03/29 04:47:51;;;;;;;2.55;2.40;;;20.00;57.60;;;;;;4978131;28;20046;-13
2022/03/29 04:50:17;;;;;;;2.45;2.20;;;20.00;57.60;;;;;;4995360;28;20042;-13
2022/03/29 04:52:44;;;;;;;2.25;2.15;;;20.00;57.60;;;;;;4996124;28;20049;-13
2022/03/29 04:55:10;;;;;;;2.25;2.15;;;20.00;57.60;;;;;;4996053;28;20046;-13
2022/03/29 04:57:36;;;;;;;2.20;2.00;;;20.00;57.60;;;;;;4996759;28;20045;-14
2022/03/29 05:00:03;;;;;;;2.00;1.90;;;20.00;57.60;;;;;;4991620;28;20106;-14
2022/03/29 05:02:28;;;;;;;2.75;2.55;;;20.00;57.50;;;;;;4982412;28;20050;-13
2022/03/29 05:04:54;;;;;;;2.40;2.17;;;20.00;57.60;;;;;;4991740;28;20086;-14
2022/03/29 05:07:22;;;;;;;2.10;2.00;;;20.00;57.70;;;;;;4647221;28;10000475;-13
2022/03/29 05:09:48;;;;;;;2.20;2.10;;;20.00;57.60;;;;;;4991674;28;20053;-12
2022/03/29 05:12:14;;;;;;;2.13;2.00;;;20.00;57.60;;;;;;4992702;28;20042;-13
2022/03/29 05:14:39;;;;;;;2.65;2.45;;;20.00;57.60;;;;;;4995309;28;20132;-14
2022/03/29 05:17:05;;;;;;;2.20;2.10;;;20.00;57.70;;;;;;4996091;28;20050;-13
2022/03/29 05:19:31;;;;;;;2.33;2.17;;;20.00;57.70;;;;;;4995054;28;20056;-13
2022/03/29 05:21:56;;;;;;;2.30;2.20;;;20.00;57.60;;;;;;5003514;28;20112;-14
2022/03/29 05:24:22;;;;;;;2.17;2.08;;;20.00;57.50;;;;;;5002023;28;20522;-14
2022/03/29 05:26:48;;;;;;;3.28;2.17;;;20.00;57.50;;;;;;4991660;28;20046;-13
2022/03/29 05:29:14;;;;;;;2.30;2.17;;;20.00;57.60;;;;;;4992110;28;20137;-13
2022/03/29 05:31:39;;;;;;;2.63;2.42;;;20.00;57.60;;;;;;4991511;28;20120;-13
2022/03/29 05:34:05;;;;;;;2.30;2.20;;;19.90;57.70;;;;;;4992507;28;20786;-13
2022/03/29 05:36:31;;;;;;;2.35;2.15;;;19.90;57.70;;;;;;4994003;28;20065;-13
2022/03/29 05:38:57;;;;;;;2.38;1.85;;;20.00;57.70;;;;;;4988004;28;20051;-13
2022/03/29 05:41:23;;;;;;;2.22;2.08;;;20.00;57.70;;;;;;4990857;28;20039;-13
2022/03/29 05:43:48;;;;;;;2.17;1.98;;;20.00;57.70;;;;;;4994204;28;20055;-13
2022/03/29 05:49:00;;;;;;;2.45;2.35;;;20.00;58.00;;;;;;4979561;28;20074;-13
2022/03/29 05:51:26;;;;;;;3.38;2.03;;;20.00;58.60;;;;;;4993180;28;20038;-13
2022/03/29 05:53:53;;;;;;;2.83;2.05;;;20.00;58.60;;;;;;4994506;28;20050;-13
2022/03/29 05:56:19;;;;;;;2.25;1.65;;;20.00;58.40;;;;;;4994290;28;20057;-13
2022/03/29 05:58:44;;;;;;;1.92;1.83;;;20.10;58.30;;;;;;4990972;28;20050;-13
2022/03/29 06:01:10;;;;;;;2.35;2.15;;;20.00;58.30;;;;;;4994972;28;20035;-14
2022/03/29 06:03:36;;;;;;;1.88;1.77;;;20.00;58.40;;;;;;4993668;28;20132;-13
2022/03/29 06:06:01;;;;;;;3.20;2.25;;;20.00;58.50;;;;;;4994823;28;20038;-13
2022/03/29 06:08:27;;;;;;;1.88;1.77;;;20.00;58.50;;;;;;4993187;28;20050;-13
2022/03/29 06:10:53;;;;;;;1.80;1.70;;;20.00;58.50;;;;;;4993999;28;20065;-13
2022/03/29 06:13:19;;;;;;;1.95;1.85;;;20.00;58.60;;;;;;4992112;28;20046;-14
2022/03/29 06:15:44;;;;;;;2.08;1.85;;;20.00;58.70;;;;;;4994137;28;20093;-13
2022/03/29 06:18:10;;;;;;;3.08;1.42;;;20.00;58.70;;;;;;4994425;28;20081;-12
2022/03/29 06:20:35;;;;;;;2.38;2.17;;;19.90;58.80;;;;;;4993355;28;20070;-13
2022/03/29 06:23:01;;;;;;;2.60;2.40;;;19.90;58.80;;;;;;4992606;28;20109;-13
2022/03/29 06:25:27;;;;;;;1.90;1.80;;;19.90;58.80;;;;;;4993420;28;20042;-13
2022/03/29 06:27:54;;;;;;;1.92;1.83;;;19.90;58.80;;;;;;4995112;28;20086;-13
2022/03/29 06:30:20;;;;;;;2.50;2.30;;;19.90;58.90;;;;;;4994348;28;20049;-13
2022/03/29 06:32:47;;;;;;;2.67;1.92;;;19.90;58.80;;;;;;4992870;28;20516;-13
2022/03/29 06:35:13;;;;;;;2.55;2.15;;;20.00;58.80;;;;;;4994449;28;20046;-13
2022/03/29 06:37:38;;;;;;;2.00;1.90;;;20.00;58.90;;;;;;4994900;28;20047;-13
2022/03/29 06:40:05;;;;;;;2.35;1.80;;;20.00;58.60;;;;;;4990138;28;20056;-13
2022/03/29 06:42:30;;;;;;;2.40;2.17;;;19.90;58.80;;;;;;4993787;28;20126;-13
2022/03/29 06:44:56;;;;;;;2.75;2.20;;;20.00;58.80;;;;;;4996976;28;20042;-14
2022/03/29 06:47:21;;;;;;;2.00;1.40;;;20.00;58.70;;;;;;4997031;28;20507;-13
2022/03/29 06:49:47;;;;;;;2.30;2.10;;;20.00;58.80;;;;;;4998057;28;20121;-13
2022/03/29 06:52:13;;;;;;;2.28;1.48;;;20.00;58.80;;;;;;4994659;28;20090;-14
2022/03/29 06:54:38;;;;;;;2.53;1.60;;;20.00;58.80;;;;;;4986173;28;20119;-13
2022/03/29 06:57:09;;;;;;;2.97;1.70;;;20.00;58.80;;;;;;4996951;28;20042;-13
2022/03/29 06:59:35;;;;;;;1.80;1.70;;;19.90;58.70;;;;;;4998235;28;20137;-13
2022/03/29 07:02:00;;;;;;;1.58;1.48;;;19.90;58.70;;;;;;4985634;28;20090;-13
2022/03/29 07:04:26;;;;;;;3.63;1.67;;;20.00;58.70;;;;;;4988906;28;20407;-13
2022/03/29 07:06:51;;;;;;;1.52;1.40;;;20.00;58.70;;;;;;4978925;28;20043;-13
2022/03/29 07:12:01;;;;;;;3.25;1.52;;;20.00;58.40;;;;;;4993669;28;20176;-14
2022/03/29 07:14:27;;;;;;;2.00;1.90;;;20.00;58.30;;;;;;5000614;28;20129;-14
2022/03/29 07:16:52;;;;;;;1.77;1.67;;;20.00;58.20;;;;;;5000986;28;20039;-14
2022/03/29 07:19:18;;;;;;;1.63;1.52;;;20.00;58.30;;;;;;4997666;28;20495;-14
2022/03/29 07:21:44;;;;;;;2.08;1.75;;;20.00;58.20;;;;;;4989917;28;20050;-15
2022/03/29 07:24:11;;;;;;;1.80;1.70;;;20.00;58.20;;;;;;4978141;28;20535;-14
2022/03/29 07:26:37;;;;;;;2.70;1.83;;;20.00;58.30;;;;;;4980853;28;20046;-14
2022/03/29 07:29:04;;;;;;;1.90;1.70;;;20.00;58.10;;;;;;4988620;28;20042;-14
2022/03/29 07:31:30;;;;;;;3.35;1.63;;;20.00;58.50;;;;;;4997132;28;20073;-14
2022/03/29 07:33:56;;;;;;;1.33;1.33;;;20.10;58.90;;;;;;4998037;28;20081;-14
2022/03/29 07:36:21;;;;;;;1.60;1.47;;;20.10;58.90;;;;;;4645951;28;10000433;-14
2022/03/29 07:38:47;;;;;;;1.60;1.50;;;20.10;59.00;;;;;;4993858;28;20057;-15
2022/03/29 07:41:12;;;;;;;2.05;1.50;;;20.10;58.80;;;;;;4999032;28;20050;-14
2022/03/29 07:43:38;;;;;;;2.03;1.38;;;20.20;58.90;;;;;;5002358;28;20137;-14
2022/03/29 07:46:04;;;;;;;1.33;1.23;;;20.20;58.80;;;;;;4994343;28;20042;-14
2022/03/29 07:48:29;;;;;;;2.15;1.33;;;20.10;58.80;;;;;;4995363;28;20061;-14
2022/03/29 07:50:55;;;;;;;1.75;0.98;;;20.10;58.80;;;;;;5002894;28;20046;-14
2022/03/29 07:53:22;;;;;;;1.50;1.40;;;20.20;58.70;;;;;;4993594;28;20511;-14
2022/03/29 07:55:48;;;;;;;1.73;1.50;;;20.20;58.60;;;;;;4992990;28;20057;-14
2022/03/29 07:58:14;;;;;;;2.05;1.60;;;20.20;58.40;;;;;;4993117;28;20065;-14
2022/03/29 08:00:40;;;;;;;1.65;1.55;;;20.20;58.40;;;;;;4990055;28;20053;-15
2022/03/29 08:03:18;;;;;;;2.13;1.92;;;20.10;58.50;;;;;;4985510;28;20271;-14
2022/03/29 08:05:45;;;;;;;1.83;1.60;;;20.10;58.60;;;;;;4979049;28;20047;-14
2022/03/29 08:08:14;;;;;;;2.50;1.73;;;20.00;58.70;;;;;;4994413;28;20280;-14
2022/03/29 08:10:41;;;;;;;1.80;1.55;;;20.00;58.70;;;;;;4985239;28;20422;-14
2022/03/29 08:13:07;;;;;;;1.98;1.45;;;20.00;58.60;;;;;;4996121;28;20065;-13
2022/03/29 08:15:33;;;;;;;1.40;1.30;;;20.00;58.70;;;;;;4992667;28;20053;-14
2022/03/29 08:17:59;;;;;;;1.60;1.50;;;20.00;58.70;;;;;;4994095;28;20054;-14
2022/03/29 08:20:25;;;;;;;2.15;1.95;;;20.00;58.60;;;;;;4990259;28;20069;-13
2022/03/29 08:22:52;;;;;;;2.10;1.75;;;20.10;58.60;;;;;;4993449;28;20089;-14
2022/03/29 08:25:18;;;;;;;1.92;1.73;;;20.00;58.60;;;;;;4991300;28;20056;-13
2022/03/29 08:27:45;;;;;;;1.60;1.50;;;20.10;58.60;;;;;;4986174;28;20112;-13
2022/03/29 08:30:11;;;;;;;1.60;1.48;;;20.10;58.50;;;;;;4987670;28;20043;-14
2022/03/29 08:32:37;;;;;;;1.95;1.75;;;20.10;58.40;;;;;;4988034;28;20054;-13
2022/03/29 08:35:04;;;;;;;2.10;1.90;;;20.10;58.40;;;;;;5011464;28;20042;-13
2022/03/29 08:37:29;;;;;;;1.80;1.70;;;20.10;58.30;;;;;;4980573;28;20050;-13
2022/03/29 08:39:55;;;;;;;1.90;1.80;;;20.10;58.20;;;;;;4993501;28;20108;-13
2022/03/29 08:42:23;;;;;;;3.70;1.65;;;20.10;58.20;;;;;;4987087;28;20071;-14
2022/03/29 08:44:48;;;;;;;1.90;1.58;;;20.10;58.20;;;;;;4991953;28;20050;-14
2022/03/29 08:47:15;;;;;;;4.15;1.92;;;20.20;58.10;;;;;;4992515;28;20050;-13
2022/03/29 08:49:42;;;;;;;1.95;1.80;;;20.20;58.10;;;;;;4988374;28;20042;-14
2022/03/29 08:52:08;;;;;;;2.22;1.48;;;20.20;58.10;;;;;;4984163;28;20120;-14
2022/03/29 08:54:34;;;;;;;1.92;1.65;;;20.20;58.00;;;;;;4991793;28;20046;-13
2022/03/29 08:56:59;;;;;;;2.38;1.85;;;20.20;58.00;;;;;;4992106;28;20083;-13
2022/03/29 08:59:26;;;;;;;1.70;1.60;;;20.20;58.00;;;;;;4989543;28;20058;-14
2022/03/29 09:01:53;;;;;;;1.80;1.70;;;20.20;57.90;;;;;;4989714;28;20805;-14
2022/03/29 09:04:22;;;;;;;1.80;1.70;;;20.20;58.00;;;;;;4990492;28;20045;-13
2022/03/29 09:06:54;;;;;;;3.00;1.65;;;20.20;58.00;;;;;;4988875;28;20046;-14
2022/03/29 09:09:26;;;;;;;1.50;1.40;;;20.20;58.00;;;;;;4992806;28;20054;-14
2022/03/29 09:11:53;;;;;;;1.88;1.63;;;20.20;58.00;;;;;;4981158;28;20457;-14
2022/03/29 09:14:19;;;;;;;1.55;1.45;;;20.20;57.90;;;;;;4990038;28;20073;-13
2022/03/29 09:16:45;;;;;;;1.65;1.52;;;20.20;57.90;;;;;;4990675;28;20069;-14
2022/03/29 09:19:11;;;;;;;2.25;1.52;;;20.20;57.80;;;;;;4978770;28;20050;-14
2022/03/29 09:21:41;;;;;;;2.35;1.63;;;20.20;57.70;;;;;;4989587;28;20141;-13
2022/03/29 09:24:12;;;;;;;1.60;1.48;;;20.20;57.90;;;;;;4978988;28;20051;-13
2022/03/29 09:26:49;;;;;;;1.75;1.65;;;20.10;57.90;;;;;;4992152;28;20054;-14
2022/03/29 09:29:22;;;;;;;2.00;1.85;;;20.20;57.90;;;;;;4991709;28;20069;-14
2022/03/29 09:32:12;;;;;;;1.88;1.77;;;20.20;57.80;;;;;;4990670;28;20065;-14
2022/03/29 09:34:38;;;;;;;1.45;1.40;;;20.20;57.70;;;;;;4989277;28;20061;-14
2022/03/29 09:37:04;;;;;;;3.78;1.50;;;20.20;57.70;;;;;;4991876;28;20054;-14
2022/03/29 09:39:38;;;;;;;1.67;1.58;;;20.20;57.70;;;;;;4989377;28;20042;-13
2022/03/29 09:42:09;;;;;;;2.05;1.90;;;20.20;57.70;;;;;;4990499;28;20046;-13
2022/03/29 09:44:41;;;;;;;1.80;1.70;;;20.20;57.60;;;;;;4991090;28;20046;-13
2022/03/29 09:47:09;;;;;;;1.83;1.73;;;20.20;57.70;;;;;;4978093;28;20310;-14
2022/03/29 09:49:54;;;;;;;1.83;1.73;;;20.20;57.70;;;;;;4985988;28;20046;-13
2022/03/29 09:52:21;;;;;;;1.60;1.50;;;20.20;57.80;;;;;;4987904;28;20077;-14
2022/03/29 09:55:06;;;;;;;1.88;1.77;;;20.20;57.90;;;;;;4995309;28;20079;-13
2022/03/29 09:57:36;;;;;;;2.20;1.60;;;20.10;58.00;;;;;;4989977;28;20079;-16
2022/03/29 10:00:02;;;;;;;1.67;1.58;;;20.10;58.00;;;;;;4989531;28;20384;-14
2022/03/29 10:02:36;;;;;;;1.73;1.63;;;20.20;58.00;;;;;;4991751;28;20100;-16
2022/03/29 10:05:02;;;;;;;3.10;1.33;;;20.20;57.80;;;;;;4996425;28;20078;-15
2022/03/29 10:07:28;;;;;;;1.63;1.52;;;20.20;57.80;;;;;;4987865;28;20120;-15
2022/03/29 10:09:54;;;;;;;2.30;1.27;;;20.20;58.00;;;;;;4977288;28;20120;-16
2022/03/29 10:12:22;;;;;;;2.22;2.13;;;20.10;58.00;;;;;;4990139;28;20054;-13
2022/03/29 10:14:50;;;;;;;2.00;1.80;;;20.10;58.10;;;;;;4990120;28;20046;-14
2022/03/29 10:17:16;;;;;;;1.70;1.50;;;20.10;58.00;;;;;;4991198;28;20066;-13
2022/03/29 10:19:43;;;;;;;1.67;1.58;;;20.10;58.70;;;;;;4973936;28;20053;-14
2022/03/29 10:22:09;;;;;;;1.85;1.67;;;20.10;58.30;;;;;;4976740;28;20436;-13
2022/03/29 10:24:35;;;;;;;1.90;1.73;;;20.20;58.30;;;;;;4995196;28;20149;-14
2022/03/29 10:27:01;;;;;;;1.80;1.70;;;20.20;58.30;;;;;;4994664;28;20510;-14
2022/03/29 10:29:27;;;;;;;1.77;1.45;;;20.20;58.40;;;;;;4989041;28;20081;-13
2022/03/29 10:31:55;;;;;;;1.55;1.45;;;20.20;58.40;;;;;;4995031;28;20434;-13
2022/03/29 10:34:24;;;;;;;1.77;1.67;;;20.20;58.10;;;;;;4994590;28;20046;-13
2022/03/29 10:37:09;;;;;;;1.65;1.55;;;20.10;58.40;;;;;;4994379;28;20058;-14
2022/03/29 10:39:54;;;;;;;4.03;1.42;;;20.20;58.60;;;;;;4994955;28;20531;-14
2022/03/29 10:42:34;;;;;;;1.67;1.58;;;20.20;58.60;;;;;;4995316;28;20050;-13
2022/03/29 10:45:00;;;;;;;1.55;1.45;;;20.20;58.30;;;;;;4994029;28;20534;-13
2022/03/29 10:47:30;;;;;;;2.13;1.90;;;20.20;58.30;;;;;;4993865;28;20061;-13
2022/03/29 10:49:55;;;;;;;1.98;1.70;;;20.30;58.40;;;;;;4994692;28;20057;-14
2022/03/29 10:52:21;;;;;;;1.90;1.80;;;20.20;58.30;;;;;;4994742;28;20058;-13
2022/03/29 10:54:47;;;;;;;2.75;1.88;;;20.30;58.10;;;;;;4994437;28;20047;-14
2022/03/29 10:57:26;;;;;;;3.20;1.60;;;20.30;58.10;;;;;;4998439;28;20078;-14
2022/03/29 11:00:06;;;;;;;1.63;1.52;;;20.30;58.20;;;;;;4996634;28;20042;-13
2022/03/29 11:02:32;;;;;;;2.28;2.00;;;20.30;58.20;;;;;;4995763;28;20058;-13
2022/03/29 11:05:12;;;;;;;1.88;1.77;;;20.30;58.30;;;;;;4994123;28;20476;-14
2022/03/29 11:07:52;;;;;;;1.58;1.27;;;20.30;58.30;;;;;;4998106;28;20418;-13
2022/03/29 11:10:23;;;;;;;1.40;1.30;;;20.40;58.20;;;;;;4994397;28;20077;-14
2022/03/29 11:12:53;;;;;;;1.42;1.33;;;20.40;58.00;;;;;;4998606;28;20498;-13
2022/03/29 11:15:24;;;;;;;1.98;1.30;;;20.50;58.00;;;;;;4996941;28;20049;-14
2022/03/29 11:17:54;;;;;;;1.98;1.30;;;20.50;57.70;;;;;;4989415;28;20103;-13
2022/03/29 11:20:38;;;;;;;1.90;1.80;;;20.50;57.70;;;;;;4982210;28;20056;-13
2022/03/29 11:23:04;;;;;;;1.50;1.40;;;20.40;57.70;;;;;;5001247;28;20076;-13
2022/03/29 11:25:37;;;;;;;1.40;1.30;;;20.40;57.80;;;;;;4996109;28;20070;-15
2022/03/29 11:28:10;;;;;;;1.70;1.60;;;20.40;57.80;;;;;;4995890;28;20487;-14
2022/03/29 11:30:36;;;;;;;1.67;1.58;;;20.40;57.80;;;;;;4996488;28;20046;-14
2022/03/29 11:33:03;;;;;;;1.70;1.60;;;20.40;57.80;;;;;;4998345;28;20057;-13
2022/03/29 11:35:29;;;;;;;1.67;1.58;;;20.40;57.80;;;;;;4997170;28;20050;-13
2022/03/29 11:37:55;;;;;;;1.27;1.27;;;20.40;57.80;;;;;;4998110;28;20050;-14
2022/03/29 11:40:22;;;;;;;1.50;1.40;;;20.40;57.70;;;;;;4994811;28;20061;-13
2022/03/29 11:42:55;;;;;;;1.70;1.60;;;20.40;57.90;;;;;;4993188;28;20054;-13
2022/03/29 11:45:22;;;;;;;1.70;1.60;;;20.50;57.80;;;;;;4994952;28;20050;-14
2022/03/29 11:48:11;;;;;;;1.58;1.48;;;20.40;57.70;;;;;;4990352;28;20054;-14
2022/03/29 11:50:45;;;;;;;1.90;1.80;;;20.40;57.70;;;;;;4978026;28;20094;-14
2022/03/29 11:53:27;;;;;;;1.15;1.15;;;20.60;57.60;;;;;;4990190;28;20046;-14
2022/03/29 11:55:54;;;;;;;2.55;1.80;;;20.60;57.50;;;;;;4994759;28;20452;-14
2022/03/29 11:58:30;;;;;;;1.80;1.70;;;20.60;57.90;;;;;;4997445;28;20112;-14
2022/03/29 12:01:00;;;;;;;1.52;1.42;;;20.50;58.10;;;;;;4993215;28;20046;-14
2022/03/29 12:03:30;;;;;;;2.50;1.63;;;20.50;57.90;;;;;;4997832;28;20105;-13
2022/03/29 12:06:13;;;;;;;1.92;1.80;;;20.50;58.00;;;;;;4995556;28;20459;-14
2022/03/29 12:08:49;;;;;;;1.67;1.48;;;20.60;58.00;;;;;;4995744;28;20053;-14
2022/03/29 12:11:33;;;;;;;1.70;1.60;;;20.60;57.90;;;;;;4997681;28;20042;-14
2022/03/29 12:14:05;;;;;;;2.85;1.77;;;20.60;58.10;;;;;;4993937;28;20054;-14
2022/03/29 12:16:34;;;;;;;1.98;1.80;;;20.60;58.40;;;;;;4995758;28;20038;-14
2022/03/29 12:19:00;;;;;;;2.83;1.73;;;20.60;58.40;;;;;;4996798;28;20050;-14
2022/03/29 12:21:26;;;;;;;2.75;1.70;;;20.60;58.10;;;;;;4997454;28;20050;-14
2022/03/29 12:24:08;;;;;;;1.63;1.52;;;20.60;58.10;;;;;;4995826;28;20049;-14
2022/03/29 12:26:37;;;;;;;3.22;1.58;;;20.60;58.20;;;;;;4995882;28;20038;-15
2022/03/29 12:29:02;;;;;;;1.60;1.50;;;20.60;58.10;;;;;;4983713;28;20129;-14
2022/03/29 12:31:28;;;;;;;3.38;1.60;;;20.70;58.10;;;;;;4993038;28;20070;-14
2022/03/29 12:33:54;;;;;;;2.70;1.95;;;20.60;58.70;;;;;;4974720;28;20066;-14
2022/03/29 12:36:20;;;;;;;1.80;1.67;;;20.70;58.30;;;;;;4994384;28;20046;-15
2022/03/29 12:38:46;;;;;;;2.33;1.60;;;20.80;58.00;;;;;;4987733;28;20185;-14
2022/03/29 12:41:12;;;;;;;2.47;1.60;;;20.80;58.20;;;;;;4995164;28;20073;-15
2022/03/29 12:43:39;;;;;;;1.55;1.45;;;20.80;58.30;;;;;;4991174;28;20058;-14
2022/03/29 12:46:09;;;;;;;3.90;1.95;;;20.80;58.30;;;;;;4982408;28;20096;-15
2022/03/29 12:48:38;;;;;;;1.63;1.30;;;20.90;58.10;;;;;;4992831;28;20081;-14
2022/03/29 12:51:06;;;;;;;1.70;1.60;;;20.80;57.90;;;;;;4994491;28;20046;-14